馬公航空站 - ATIS

METAR RCQC 251000Z 03015G25KT 9999 SCT008 BKN016 BKN025 26/22 Q1008 NOSIG RMK A2977=

站台狀態:Online
最後更新:2022-09-25 18:00:02